Martin, Tennessee
Current Conditions -  °F | °C
As of 1:35 AM on Wednesday 22 Oct 2014 (Local Time) from KUCY Reporting Station
Clear Clear  
Wind Chill: 46°   Ceiling: Unl
Heat Index: 48°   Visibility: 10mi
Dew Point: 43°   Wind: 5mph
Humidity: 82%   Direction: 50°NE
Pressure: 30.15"   Gusts: NA
Location:  36.34°N, 88.85°W
Report Text: KUCY 220635Z AUTO 05004KT 10SM CLR 09/06 A3015 RMK
Loading
Personal Weather Stations






























Interactive Weather Map
Tropical Storm Tracking
New forecast layout! Learn more

10-Day Weather Forecast

Advertisements
Track Severe Weather on mobile